首页
METAR-TAF:

METAR-TAF

机场 :

盧加諾, 瑞士

纬度: 46-00N, 经度: 008-58E, 海拔: 273米

当前天气观测

该预报发布于43分钟前的21:20 UTC
风速14节,风向
温度 11°C
湿度 35%
气压 996 hPa
能见度10公里或以上
1500米以下无云,无积雨云

METAR: LSZA 122120Z AUTO 35014KT CAVOK 11/M04 Q0996

时间: 23:03 (22:03 UTC)

预报

该预报发布于6小时和0分钟前的16:03 UTC
预报有效从12日的 16点(UTC)到 12日的 24点(UTC)
风速10节,风向
能见度10公里或以上
散云层高于6500英尺
成为
从 12日的 16点(UTC)到 12日的 18点(UTC)
能见度10公里或以上
1500米以下无云,无积雨云
几率 30% :
短暂存在
从 12日的 21点(UTC)到 12日的 24点(UTC)
风速15节,风向,有时为25节阵风

TAF: LSZA 121603Z 1216/1224 36010KT 9999 SCT065 BECMG 1216/1218 CAVOK PROB30 TEMPO 1221/1224 01015G25KT

超过4000个机场的气象观测和天气预报(METAR&TAF报告)。

可查询的气象台以黄色和红色小点在地图上表示。

将鼠标移到小点上方,可查看气象台名称。

然后点击查看天气观测和预报。

如需切换地图:点击带黑十字的绿色按钮放大地图;点击带横线的绿色按钮缩小地图;或者点击绿色箭头查看邻近地区的地图。


METAR-TAF: